• Join FlightAware (Why Join?)
  • Login
  • US Flag 
10:24PM EDT


 

Airport Tracker/Info


-or-


 

Live Flight TrackerFlight Track Log ✈ OPT732 ✈ 10-May-2013 ✈ KJZI - KSJC

Flight Track Log - Related Links

Times and Time Zones

All times are in EDT time to prevent confusion due to time zone crossing. See the OPT732 flight status page for this flight to view local times or setup timezone preferences in your user account.

Time Position Orientation Groundspeed Altitude Reporting Facility
EDT Latitude Longitude Course Direction KTS MPH feet Rate Location/Type
12:38PM 32.6814 -80.0369 301° West 262 302 4,400  Level Jacksonville Center
12:39PM 32.6914 -80.1156 279° West 268 308 7,000 2,580 Climbing Jacksonville Center
12:40PM 32.7286 -80.1911 300° West 274 315 9,600 2,640 Climbing Jacksonville Center
12:41PM 32.7739 -80.2689 305° West 268 308 12,300 2,520 Climbing Jacksonville Center
12:42PM 32.9754 -80.9008 301° West  Level FlightAware Approximate
12:42PM 32.8153 -80.3492 302° West 283 326 14,700  Level Jacksonville Center
12:43PM 33.0388 -81.0275 301° West  Level FlightAware Approximate
12:43PM 32.8567 -80.4319 301° West 289 333 17,000  Level Jacksonville Center
12:44PM 32.9022 -80.5222 301° West 299 344 19,100 2,160 Climbing Jacksonville Center
12:45PM 32.9497 -80.6175 301° West 315 362 21,400 2,100 Climbing Jacksonville Center
12:46PM 32.9994 -80.7153 301° West 331 381 23,400 1,680 Climbing Jacksonville Center
12:47PM 33.0428 -80.8036 300° West 336 387 24,800 1,500 Climbing Jacksonville Center
12:48PM 33.1028 -80.8989 307° West 348 400 26,500 1,680 Climbing Jacksonville Center
12:49PM 33.1956 -80.9589 332° Northwest 348 400 28,200 1,620 Climbing Jacksonville Center
12:50PM 33.2903 -81.0239 330° Northwest 374 430 29,800 1,500 Climbing Jacksonville Center
12:51PM 33.3772 -81.1092 321° Northwest 392 451 31,300 1,500 Climbing Jacksonville Center
12:52PM 33.4269 -81.2300 296° West 392 451 32,800 1,560 Climbing Jacksonville Center
12:53PM 33.4808 -81.3661 295° West 408 470 34,500 1,560 Climbing Jacksonville Center
12:54PM 33.5364 -81.4922 298° West 418 481 36,000 1,440 Climbing Jacksonville Center
12:55PM 33.5858 -81.6186 295° West 423 487 37,400 1,200 Climbing Jacksonville Center
12:56PM 33.6458 -81.7656 296° West 415 478 38,900 1,140 Climbing Atlanta Center
12:57PM 33.6939 -81.8867 296° West 415 478 40,100 1,200 Climbing Atlanta Center
12:58PM 33.7464 -82.0153 296° West 404 465 41,300 840 Climbing Atlanta Center
12:59PM 33.7939 -82.1317 296° West 399 459 41,800 480 Climbing Atlanta Center
01:00PM 33.8439 -82.2506 297° West 394 453 42,300 420 Climbing Atlanta Center
01:01PM 33.8872 -82.3647 295° West 405 466 42,700 300 Climbing Atlanta Center
01:02PM 33.9347 -82.4839 296° West 410 472 43,000 120 Climbing Atlanta Center
01:03PM 33.9842 -82.6083 296° West 405 466 43,000  Level Atlanta Center
01:04PM 34.0378 -82.7353 297° West 417 480 43,000  Level Atlanta Center
01:05PM 34.0914 -82.8672 296° West 429 494 43,000  Level Atlanta Center
01:06PM 34.1572 -82.9894 303° West 435 501 43,000  Level Atlanta Center
01:07PM 34.2250 -83.1142 303° West 441 507 43,000  Level Atlanta Center
01:08PM 34.3008 -83.2467 305° West 441 507 43,100 180 Climbing Atlanta Center
01:09PM 34.3664 -83.3644 304° West 436 502 43,400 240 Climbing Atlanta Center
01:10PM 34.4358 -83.4872 304° West 436 502 43,600 180 Climbing Atlanta Center
01:11PM 34.5031 -83.6078 304° West 436 502 43,800 240 Climbing Atlanta Center
01:12PM 34.5722 -83.7336 304° West 436 502 44,100 240 Climbing Atlanta Center
01:13PM 34.6436 -83.8594 305° West 436 502 44,300 240 Climbing Atlanta Center
01:14PM 34.7083 -83.9858 302° West 436 502 44,600 240 Climbing Atlanta Center
01:15PM 34.7772 -84.1122 304° West 442 509 44,800 180 Climbing Atlanta Center
01:16PM 34.8503 -84.2336 306° West 442 509 45,000 60 Climbing Atlanta Center
01:17PM 34.9186 -84.3606 303° West 451 519 45,000  Level Atlanta Center
01:18PM 34.9769 -84.4772 301° West 451 519 45,000  Level Atlanta Center
01:19PM 35.0494 -84.6097 304° West 457 526 45,000  Level Atlanta Center
01:20PM 35.1175 -84.7397 303° West 462 532 45,000  Level Atlanta Center
01:21PM 35.1875 -84.8722 303° West 462 532 45,000  Level Atlanta Center
01:22PM 35.2597 -85.0028 304° West 462 532 45,000  Level Atlanta Center
01:23PM 35.3700 -85.2111 303° West 460 529 45,000  Level Memphis Center
01:24PM 35.4378 -85.3419 302° West 460 529 45,000  Level Memphis Center
01:25PM 35.5100 -85.4756 304° West 466 536 45,000  Level Memphis Center
01:26PM 35.5775 -85.6067 302° West 466 536 45,000  Level Memphis Center
01:27PM 35.6494 -85.7406 304° West 466 536 45,000  Level Memphis Center
01:28PM 35.7189 -85.8747 303° West 466 536 45,000  Level Memphis Center
01:29PM 35.7883 -86.0067 303° West 466 536 45,000  Level Memphis Center
01:30PM 35.8575 -86.1411 302° West 466 536 45,000  Level Memphis Center
01:31PM 35.9267 -86.2736 303° West 466 536 45,000  Level Memphis Center
01:32PM 35.9936 -86.4086 302° West 466 536 45,000  Level Memphis Center
01:33PM 36.0603 -86.5417 302° West 466 536 45,000  Level Memphis Center
01:34PM 36.1356 -86.6872 303° West 459 528 45,000  Level Memphis Center
01:35PM 36.1978 -86.8206 300° West 459 528 45,000  Level Memphis Center
01:36PM 36.2447 -86.9344 297° West 459 528 45,000  Level Memphis Center
01:37PM 36.3156 -87.0886 300° West 465 535 45,000  Level Memphis Center
01:38PM 36.3794 -87.2225 301° West 465 535 45,000  Level Memphis Center
01:39PM 36.4392 -87.3544 299° West 453 521 45,000  Level Memphis Center
01:40PM 36.5006 -87.4889 300° West 453 521 45,000  Level Memphis Center
01:41PM 36.5600 -87.6264 298° West 453 521 45,000  Level Memphis Center
01:42PM 36.6069 -87.7747 292° West 453 521 45,000  Level Memphis Center
01:43PM 36.6519 -87.9361 289° West 458 527 45,000  Level Memphis Center
01:44PM 36.6900 -88.0825 288° West 453 521 45,000  Level Memphis Center
01:45PM 36.7300 -88.2161 291° West 458 527 45,000  Level Memphis Center
01:46PM 36.7719 -88.3650 289° West 463 533 45,000  Level Memphis Center
01:47PM 36.8097 -88.5169 287° West 463 533 45,000  Level Memphis Center
01:48PM 36.8494 -88.6664 288° West 458 527 45,000  Level Memphis Center
01:49PM 36.8889 -88.8161 288° West 458 527 45,000  Level Memphis Center
01:50PM 36.9303 -88.9658 289° West 458 527 45,000  Level Memphis Center
01:51PM 36.9694 -89.1158 288° West 458 527 45,000  Level Memphis Center
01:52PM 37.0128 -89.2839 288° West 465 535 45,000  Level Memphis Center
01:54PM 37.0728 -89.5233 288° West 455 524 45,000  Level Kansas City Center
01:55PM 37.1100 -89.6728 287° West 453 521 45,000  Level Kansas City Center
01:56PM 37.1558 -89.8522 288° West 453 521 45,000  Level Kansas City Center
01:57PM 37.1939 -90.0025 288° West 453 521 45,000  Level Kansas City Center
01:58PM 37.2319 -90.1522 288° West 453 521 45,000  Level Kansas City Center
01:59PM 37.2692 -90.3039 287° West 455 524 45,000  Level Kansas City Center
02:00PM 37.3075 -90.4569 288° West 457 526 45,000  Level Kansas City Center
02:01PM 37.3447 -90.6122 287° West 457 526 45,000  Level Kansas City Center
02:02PM 37.3853 -90.7758 287° West 458 527 45,000  Level Kansas City Center
02:04PM 37.4214 -90.9289 287° West 457 526 45,000  Level Kansas City Center
02:05PM 37.4581 -91.0817 287° West 455 524 45,000  Level Kansas City Center
02:06PM 37.5014 -91.2644 287° West 453 521 45,000  Level Kansas City Center
02:07PM 37.5386 -91.4164 287° West 452 520 45,000  Level Kansas City Center
02:08PM 37.5744 -91.5697 286° West 455 524 45,000  Level Kansas City Center
02:09PM 37.6103 -91.7222 287° West 453 521 45,000  Level Kansas City Center
02:10PM 37.6458 -91.8764 286° West 454 522 45,000  Level Kansas City Center
02:11PM 37.6822 -92.0306 287° West 455 524 45,000  Level Kansas City Center
02:12PM 37.7208 -92.2008 286° West 455 524 45,000  Level Kansas City Center
02:13PM 37.7569 -92.3547 287° West 457 526 45,000  Level Kansas City Center
02:14PM 37.7922 -92.5100 286° West 459 528 45,000  Level Kansas City Center
02:15PM 37.8275 -92.6642 286° West 458 527 45,000  Level Kansas City Center
02:16PM 37.8681 -92.8444 286° West 456 525 45,000  Level Kansas City Center
02:17PM 37.9028 -92.9994 286° West 455 524 45,000  Level Kansas City Center
02:18PM 37.9389 -93.1542 287° West 455 524 45,100 60 Climbing Kansas City Center
02:19PM 37.9725 -93.3083 286° West 453 521 45,200 60 Climbing Kansas City Center
02:20PM 38.0058 -93.4622 285° West 452 520 45,300 60 Climbing Kansas City Center
02:21PM 38.0394 -93.6164 286° West 452 520 45,400 120 Climbing Kansas City Center
02:22PM 38.0789 -93.8003 285° West 450 518 45,600 120 Climbing Kansas City Center
02:23PM 38.1133 -93.9528 286° West 450 518 45,700 120 Climbing Kansas City Center
02:24PM 38.1425 -94.1003 284° West 448 516 45,900 120 Climbing Kansas City Center
02:25PM 38.1789 -94.2708 285° West 448 516 46,000 120 Climbing Kansas City Center
02:26PM 38.2094 -94.4169 285° West 446 513 46,200 120 Climbing Kansas City Center
02:27PM 38.2389 -94.5650 284° West 448 516 46,300 60 Climbing Kansas City Center
02:28PM 38.2733 -94.7356 284° West 447 514 46,400 120 Climbing Kansas City Center
02:29PM 38.3044 -94.8800 285° West 444 511 46,600 120 Climbing Kansas City Center
02:30PM 38.3386 -95.0503 284° West 443 510 46,700 60 Climbing Kansas City Center
02:31PM 38.3675 -95.1933 284° West 438 504 46,800 120 Climbing Kansas City Center
02:32PM 38.4003 -95.3611 284° West 438 504 47,000 60 Climbing Kansas City Center
02:33PM 38.4294 -95.5075 284° West 440 506 47,000  Level Kansas City Center
02:35PM 38.4633 -95.6756 284° West 437 503 47,000  Level Kansas City Center
02:36PM 38.4917 -95.8186 284° West 435 501 47,000  Level Kansas City Center
02:37PM 38.5239 -95.9864 284° West 435 501 47,000  Level Kansas City Center
02:38PM 38.5533 -96.1319 285° West 438 504 47,000  Level Kansas City Center
02:39PM 38.5797 -96.2761 283° West 437 503 47,000  Level Kansas City Center
02:40PM 38.6117 -96.4453 284° West 438 504 47,000  Level Kansas City Center
02:41PM 38.6386 -96.5908 283° West 438 504 47,000  Level Kansas City Center
02:42PM 38.6706 -96.7606 284° West 439 505 47,000  Level Kansas City Center
02:43PM 38.6978 -96.9025 284° West 440 506 47,000  Level Kansas City Center
02:44PM 38.7253 -97.0544 283° West 441 507 47,000  Level Kansas City Center
02:45PM 38.7583 -97.2367 283° West 440 506 47,000  Level Kansas City Center
02:46PM 38.7864 -97.3886 283° West 440 506 47,000  Level Kansas City Center
02:47PM 38.8136 -97.5400 283° West 441 507 47,000  Level Kansas City Center
02:48PM 38.8342 -97.7128 279° West 441 507 47,000  Level Kansas City Center
02:49PM 38.8475 -97.8511 277° West 443 510 47,000  Level Kansas City Center
02:50PM 38.8617 -98.0069 277° West 443 510 47,000  Level Kansas City Center
02:51PM 38.8789 -98.1947 277° West 443 510 47,000  Level Kansas City Center
02:52PM 38.8933 -98.3511 277° West 444 511 47,000  Level Kansas City Center
02:53PM 38.9075 -98.5075 277° West 442 509 47,000  Level Kansas City Center
02:54PM 38.9214 -98.6647 277° West 444 511 47,000  Level Kansas City Center
02:55PM 38.9350 -98.8214 276° West 445 512 47,000  Level Kansas City Center
02:56PM 38.9511 -99.0089 276° West 443 510 47,000  Level Kansas City Center
02:57PM 38.9642 -99.1658 276° West 443 510 47,000  Level Kansas City Center
02:58PM 38.9758 -99.3333 275° West 442 509 47,000  Level Denver Center
02:59PM 38.9897 -99.5078 276° West 441 507 47,000  Level Denver Center
03:00PM 39.0025 -99.6583 276° West 443 510 47,000  Level Denver Center
03:02PM 39.0167 -99.8339 276° West 443 510 47,000  Level Denver Center
03:03PM 39.0275 -99.9842 275° West 442 509 47,000  Level Denver Center
03:04PM 39.0389 -100.1519 275° West 448 516 47,000  Level Denver Center
03:05PM 39.0514 -100.3025 276° West 445 512 47,000  Level Denver Center
03:06PM 39.0636 -100.4803 275° West 445 512 47,000  Level Denver Center
03:07PM 39.0747 -100.6311 275° West 443 510 47,000  Level Denver Center
03:08PM 39.0889 -100.8353 275° West 448 516 47,000  Level Denver Center
03:09PM 39.0992 -100.9869 275° West 446 513 47,000  Level Denver Center
03:10PM 39.1111 -101.1672 275° West 450 518 47,000  Level Denver Center
03:11PM 39.1211 -101.3214 275° West 452 520 47,000  Level Denver Center
03:12PM 39.1325 -101.4989 275° West 446 513 47,000  Level Denver Center
03:13PM 39.1417 -101.6525 274° West 448 516 47,000  Level Denver Center
03:14PM 39.1511 -101.8097 274° West 449 517 47,000  Level Denver Center
03:15PM 39.1622 -101.9892 275° West 451 519 47,000  Level Denver Center
03:16PM 39.1756 -102.1431 276° West 451 519 47,000  Level Denver Center
03:17PM 39.2008 -102.3197 281° West 450 518 47,000  Level Denver Center
03:18PM 39.2225 -102.4731 280° West 455 524 47,000  Level Denver Center
03:19PM 39.2522 -102.6503 282° West 454 522 47,000  Level Denver Center
03:20PM 39.2792 -102.8092 282° West 454 522 47,000  Level Denver Center
03:21PM 39.3014 -102.9636 281° West 456 525 47,000  Level Denver Center
03:22PM 39.3122 -103.1444 274° West 456 525 47,000  Level Denver Center
03:23PM 39.3181 -103.2994 273° West 454 522 47,000  Level Denver Center
03:24PM 39.3247 -103.4819 273° West 455 524 47,000  Level Denver Center
03:25PM 39.3303 -103.6392 273° West 458 527 47,000  Level Denver Center
03:26PM 39.3372 -103.8225 273° West 459 528 47,000  Level Denver Center
03:27PM 39.3417 -103.9811 272° West 463 533 47,000  Level Denver Center
03:29PM 39.3489 -104.1572 273° West 477 549 47,000  Level Denver Center
03:30PM 39.3525 -104.3381 272° West 471 542 47,000  Level Denver Center
03:31PM 39.3572 -104.5044 272° West 464 534 47,000  Level Denver Center
03:32PM 39.3617 -104.6708 272° West 463 533 47,000  Level Denver Center
03:33PM 39.3653 -104.8533 272° West 471 542 47,000  Level Denver Center
03:34PM 39.3697 -105.0208 272° West 468 539 47,000  Level Denver Center
03:35PM 39.3722 -105.1886 271° West 469 540 47,000  Level Denver Center
03:36PM 39.3769 -105.3725 272° West 476 548 47,000  Level Denver Center
03:37PM 39.3786 -105.5144 271° West 468 539 47,000  Level Denver Center
03:38PM 39.3842 -105.7172 272° West 471 542 47,000  Level Denver Center
03:39PM 39.3856 -105.8889 271° West 475 547 47,000  Level Denver Center
03:40PM 39.3886 -106.0600 271° West 476 548 47,000  Level Denver Center
03:41PM 39.3917 -106.2414 271° West 473 544 47,000  Level Denver Center
03:42PM 39.3939 -106.4061 271° West 478 550 47,000  Level Denver Center
03:43PM 39.3956 -106.5994 271° West 481 554 47,000  Level Denver Center
03:44PM 39.3975 -106.7658 271° West 484 557 47,000  Level Denver Center
03:45PM 39.3914 -106.9592 268° West 482 555 47,000  Level Denver Center
03:46PM 39.3753 -107.1244 263° West 485 558 47,000  Level Denver Center
03:47PM 39.3558 -107.3186 263° West 488 562 47,000  Level Denver Center
03:48PM 39.3400 -107.4847 263° West 487 560 47,000  Level Denver Center
03:49PM 39.3228 -107.6525 262° West 489 563 47,000  Level Denver Center
03:50PM 39.3025 -107.8475 262° West 491 565 47,000  Level Denver Center
03:51PM 39.2869 -108.0144 263° West 489 563 47,000  Level Denver Center
03:52PM 39.2664 -108.2086 262° West 486 559 47,000  Level Denver Center
03:53PM 39.2492 -108.3753 262° West 487 560 47,000  Level Denver Center
03:54PM 39.2275 -108.5717 262° West 489 563 47,000  Level Denver Center
03:55PM 39.2100 -108.7389 262° West 489 563 47,000  Level Denver Center
03:56PM 39.1911 -108.9061 262° West 488 562 47,000  Level Denver Center
03:57PM 39.1692 -109.1011 262° West 489 563 47,000  Level Denver Center
03:58PM 39.1514 -109.2675 262° West 489 563 47,000  Level Denver Center
03:59PM 39.1292 -109.4617 262° West 489 563 47,000  Level Denver Center
04:00PM 39.1100 -109.6275 262° West 490 564 47,000  Level Denver Center
04:02PM 39.0886 -109.8211 262° West 488 562 47,000  Level Denver Center
04:02PM 39.0808 -109.8764 260° West 490 564 47,000  Level Salt Lake Center
04:03PM 39.0581 -110.0681 261° West 486 559 47,000  Level Salt Lake Center
04:04PM 39.0506 -110.1528 264° West 487 560 47,000  Level Denver Center
04:04PM 39.0394 -110.2344 260° West 488 562 47,000  Level Salt Lake Center
04:05PM 39.0153 -110.4250 261° West 485 558 47,000  Level Salt Lake Center
04:06PM 38.9944 -110.5892 261° West 486 559 47,000  Level Salt Lake Center
04:07PM 38.9747 -110.7525 261° West 484 557 47,000  Level Salt Lake Center
04:08PM 38.9694 -110.9492 268° West 485 558 47,000  Level Salt Lake Center
04:09PM 38.9658 -111.1233 269° West 488 562 47,000  Level Salt Lake Center
04:10PM 38.9631 -111.2969 269° West 488 562 47,000  Level Salt Lake Center
04:11PM 38.9647 -111.4694 271° West 488 562 47,000  Level Salt Lake Center
04:12PM 38.9633 -111.6439 269° West 490 564 47,000  Level Salt Lake Center
04:13PM 38.9633 -111.8156 270° West 485 558 47,000  Level Salt Lake Center
04:14PM 38.9572 -112.0253 268° West 491 565 47,000  Level Salt Lake Center
04:15PM 38.9336 -112.1969 260° West 492 566 47,000  Level Salt Lake Center
04:16PM 38.9036 -112.3686 257° West 495 570 47,000  Level Salt Lake Center
04:17PM 38.8744 -112.5417 258° West 498 573 47,000  Level Salt Lake Center
04:18PM 38.8439 -112.7122 257° West 495 570 47,000  Level Salt Lake Center
04:19PM 38.8144 -112.8847 258° West 497 572 47,000  Level Salt Lake Center
04:20PM 38.7831 -113.0583 257° West 500 575 47,000  Level Salt Lake Center
04:21PM 38.7464 -113.2617 257° West 494 568 47,000  Level Salt Lake Center
04:22PM 38.7147 -113.4331 257° West 496 571 47,000  Level Salt Lake Center
04:23PM 38.6825 -113.6069 257° West 503 579 47,000  Level Salt Lake Center
04:25PM 38.6514 -113.7786 257° West 500 575 47,000  Level Salt Lake Center
04:26PM 38.6197 -113.9528 257° West 504 580 47,000  Level Salt Lake Center
04:27PM 38.5864 -114.1242 256° West 502 578 47,000  Level Salt Lake Center
04:28PM 38.5556 -114.2958 257° West 498 573 47,000  Level Salt Lake Center
04:29PM 38.5142 -114.5031 256° West 503 579 47,000  Level Salt Lake Center
04:30PM 38.4819 -114.6733 256° West 498 573 47,000  Level Salt Lake Center
04:31PM 38.4483 -114.8431 256° West 495 570 47,000  Level Salt Lake Center
04:32PM 38.4142 -115.0150 256° West 499 574 47,000  Level Salt Lake Center
04:33PM 38.3808 -115.1853 256° West 499 574 47,000  Level Salt Lake Center
04:34PM 38.3456 -115.3644 256° West 498 573 47,000  Level Salt Lake Center
04:35PM 38.3119 -115.5333 256° West 494 568 47,000  Level Salt Lake Center
04:36PM 38.2767 -115.7042 255° West 498 573 47,000  Level Salt Lake Center
04:37PM 38.2431 -115.8736 256° West 495 570 47,000  Level Salt Lake Center
04:38PM 38.2075 -116.0428 255° West 495 570 47,000  Level Salt Lake Center
04:39PM 38.1661 -116.2436 255° West 492 566 47,000  Level Salt Lake Center
04:40PM 38.1311 -116.4114 255° West 492 566 47,000  Level Salt Lake Center
04:41PM 38.0950 -116.5806 255° West 493 567 47,000  Level Salt Lake Center
04:42PM 38.0592 -116.7481 255° West 491 565 47,000  Level Salt Lake Center
04:43PM 38.0189 -116.9147 253° West 490 564 47,000  Level Salt Lake Center
04:43PM 38.0106 -116.9481 252° West 489 563 47,000  Level Oakland Center
04:44PM 37.9694 -117.1167 253° West 491 565 47,000 -60 Level Oakland Center
04:45PM 37.9367 -117.2531 253° West 495 570 46,900 -240 Descending Salt Lake Center
04:45PM 37.9283 -117.2875 253° West 496 571 46,800 -720 Descending Oakland Center
04:46PM 37.8861 -117.4578 253° West 499 574 46,000 -1,020 Descending Oakland Center
04:47PM 37.8347 -117.6647 253° West 508 585 44,700 -1,140 Descending Oakland Center
04:48PM 37.7903 -117.8414 252° West 520 598 43,700 -1,080 Descending Oakland Center
04:49PM 37.7489 -118.0125 253° West 514 592 42,500 -1,380 Descending Oakland Center
04:50PM 37.7072 -118.1775 252° West 497 572 40,900 -1,560 Descending Oakland Center
04:51PM 37.6658 -118.3433 253° West 496 571 39,400 -1,500 Descending Oakland Center
04:52PM 37.6236 -118.5072 252° West 493 567 37,900 -1,500 Descending Oakland Center
04:54PM 37.5814 -118.6739 252° West 496 571 36,400 -1,620 Descending Oakland Center
04:55PM 37.5272 -118.8764 251° West 519 597 34,600 -1,680 Descending Oakland Center
04:56PM 37.4808 -119.0561 252° West 531 611 33,000 -1,500 Descending Oakland Center
04:57PM 37.4369 -119.2397 253° West 539 620 31,600 -1,500 Descending Oakland Center
04:58PM 37.3886 -119.4131 251° West 530 610 30,000 -1,920 Descending Oakland Center
04:59PM 37.3414 -119.5911 252° West 539 620 27,700 -2,340 Descending Oakland Center
05:00PM 37.2975 -119.7550 251° West 498 573 25,300 -2,340 Descending Oakland Center
05:01PM 37.2706 -119.9175 258° West 472 543 23,000 -2,100 Descending Oakland Center
05:02PM 37.2525 -120.0803 262° West 469 540 21,100 -1,620 Descending Oakland Center
05:03PM 37.2342 -120.2408 262° West 460 529 19,700 -1,620 Descending Oakland Center
05:04PM 37.2167 -120.3961 262° West 446 513 17,800 -2,100 Descending Oakland Center
05:04PM 37.2000 -120.5000 259° West 498 573 16,400 -2,160 Descending Northern Cal TRACON
05:05PM 37.1667 -120.6667 256° West 428 493 14,200 -2,100 Descending Northern Cal TRACON
05:06PM 37.1333 -120.8000 253° West 423 487 12,100 -2,100 Descending Northern Cal TRACON
05:07PM 37.1233 -120.8533 257° West 386 444 11,300 -1,500 Descending Oakland Center
05:08PM 37.0928 -120.9872 254° West 392 451 10,000 -660 Descending Oakland Center
05:09PM 37.0781 -121.1250 262° West 397 457 10,000  Level Oakland Center
05:10PM 37.0686 -121.2567 265° West 395 455 10,000 -60 Level Oakland Center
05:11PM 37.0592 -121.3894 265° West 389 448 9,900 -540 Descending Oakland Center
05:12PM 37.0814 -121.4858 286° West 302 348 8,900 -1,140 Descending Oakland Center
05:13PM 37.1156 -121.5811 294° West 288 331 7,600 -1,740 Descending Oakland Center
05:14PM 37.1531 -121.6803 295° West 275 316 5,400 -1,740 Descending Oakland Center
05:15PM 37.1953 -121.7533 306° West 269 310 4,100 -1,320 Descending Oakland Center
05:16PM 37.2467 -121.8014 323° Northwest 246 283 2,800 -1,080 Descending Oakland Center
05:17PM 37.2856 -121.8453 318° Northwest 213 245 1,900 -840 Descending Oakland Center
05:18PM 37.3147 -121.8761 320° Northwest 166 191 1,200 -780 Descending Oakland Center
05:19PM 37.3444 -121.9094 318° Northwest 149 171 400 -780 Descending Oakland Center
05:21PM 37.3500 -121.9167 North  Level FlightAware Approximate
05:28PM 37.3627 -121.9291 North  Level Estimated
05:29PM 37.3627 -121.9291 North  Level Estimated